sensor_id;sensor_type;location;lat;lon;timestamp;pressure;altitude;pressure_sealevel;temperature;humidity
50292;BME280;36190;54.980;73.388;2023-08-07T00:01:13;99524.69;;;17.46;66.75
50292;BME280;36190;54.980;73.388;2023-08-07T00:03:40;99528.41;;;17.45;66.80
50292;BME280;36190;54.980;73.388;2023-08-07T00:06:08;99522.78;;;17.46;66.78
50292;BME280;36190;54.980;73.388;2023-08-07T00:08:35;99523.34;;;17.49;66.71
50292;BME280;36190;54.980;73.388;2023-08-07T00:11:07;99527.72;;;17.50;66.87
50292;BME280;36190;54.980;73.388;2023-08-07T00:13:34;99528.66;;;17.55;66.91
50292;BME280;36190;54.980;73.388;2023-08-07T00:16:03;99529.81;;;17.59;66.78
50292;BME280;36190;54.980;73.388;2023-08-07T00:18:31;99531.78;;;17.64;66.68
50292;BME280;36190;54.980;73.388;2023-08-07T00:20:59;99538.25;;;17.63;66.50
50292;BME280;36190;54.980;73.388;2023-08-07T00:23:26;99543.06;;;17.61;66.60
50292;BME280;36190;54.980;73.388;2023-08-07T00:25:54;99537.91;;;17.59;66.58
50292;BME280;36190;54.980;73.388;2023-08-07T00:28:21;99550.31;;;17.60;66.81
50292;BME280;36190;54.980;73.388;2023-08-07T00:30:49;99543.91;;;17.62;66.79
50292;BME280;36190;54.980;73.388;2023-08-07T00:33:17;99549.88;;;17.64;66.74
50292;BME280;36190;54.980;73.388;2023-08-07T00:35:45;99549.59;;;17.65;66.66
50292;BME280;36190;54.980;73.388;2023-08-07T00:38:12;99559.13;;;17.68;66.57
50292;BME280;36190;54.980;73.388;2023-08-07T00:40:40;99548.94;;;17.70;66.29
50292;BME280;36190;54.980;73.388;2023-08-07T00:43:08;99551.94;;;17.73;66.28
50292;BME280;36190;54.980;73.388;2023-08-07T00:45:38;99554.41;;;17.75;66.08
50292;BME280;36190;54.980;73.388;2023-08-07T00:48:07;99557.25;;;17.80;65.97
50292;BME280;36190;54.980;73.388;2023-08-07T00:50:37;99567.91;;;17.87;65.95
50292;BME280;36190;54.980;73.388;2023-08-07T00:53:04;99557.31;;;17.97;65.56
50292;BME280;36190;54.980;73.388;2023-08-07T00:55:32;99549.31;;;18.03;65.31
50292;BME280;36190;54.980;73.388;2023-08-07T00:58:00;99552.75;;;18.10;65.20
50292;BME280;36190;54.980;73.388;2023-08-07T01:00:28;99542.19;;;18.08;64.94
50292;BME280;36190;54.980;73.388;2023-08-07T01:02:56;99551.19;;;18.14;64.77
50292;BME280;36190;54.980;73.388;2023-08-07T01:05:24;99559.25;;;18.26;64.76
50292;BME280;36190;54.980;73.388;2023-08-07T01:07:55;99569.09;;;18.32;64.57
50292;BME280;36190;54.980;73.388;2023-08-07T01:10:28;99547.50;;;18.32;64.27
50292;BME280;36190;54.980;73.388;2023-08-07T01:13:04;99568.84;;;18.46;64.06
50292;BME280;36190;54.980;73.388;2023-08-07T01:15:35;99561.41;;;18.53;63.86
50292;BME280;36190;54.980;73.388;2023-08-07T01:18:07;99562.66;;;18.62;63.55
50292;BME280;36190;54.980;73.388;2023-08-07T01:20:35;99558.16;;;18.68;63.11
50292;BME280;36190;54.980;73.388;2023-08-07T01:23:04;99557.09;;;18.69;62.94
50292;BME280;36190;54.980;73.388;2023-08-07T01:25:32;99567.75;;;18.76;62.74
50292;BME280;36190;54.980;73.388;2023-08-07T01:28:04;99563.28;;;18.81;62.65
50292;BME280;36190;54.980;73.388;2023-08-07T01:30:36;99578.25;;;18.89;62.43
50292;BME280;36190;54.980;73.388;2023-08-07T01:33:10;99566.94;;;18.92;62.17
50292;BME280;36190;54.980;73.388;2023-08-07T01:35:43;99560.16;;;18.90;62.17
50292;BME280;36190;54.980;73.388;2023-08-07T01:38:13;99562.94;;;18.95;61.89
50292;BME280;36190;54.980;73.388;2023-08-07T01:40:42;99566.34;;;19.02;61.76
50292;BME280;36190;54.980;73.388;2023-08-07T01:43:10;99566.19;;;19.09;61.61
50292;BME280;36190;54.980;73.388;2023-08-07T01:45:37;99566.84;;;19.16;61.50
50292;BME280;36190;54.980;73.388;2023-08-07T01:48:05;99567.16;;;19.20;61.19
50292;BME280;36190;54.980;73.388;2023-08-07T01:50:32;99564.88;;;19.29;60.97
50292;BME280;36190;54.980;73.388;2023-08-07T01:53:00;99569.31;;;19.35;60.63
50292;BME280;36190;54.980;73.388;2023-08-07T01:55:29;99563.16;;;19.40;60.24
50292;BME280;36190;54.980;73.388;2023-08-07T01:57:57;99565.03;;;19.39;60.20
50292;BME280;36190;54.980;73.388;2023-08-07T02:00:25;99554.53;;;19.43;60.01
50292;BME280;36190;54.980;73.388;2023-08-07T02:02:52;99556.50;;;19.47;59.91
50292;BME280;36190;54.980;73.388;2023-08-07T02:05:20;99555.84;;;19.57;59.94
50292;BME280;36190;54.980;73.388;2023-08-07T02:07:47;99546.47;;;19.65;59.67
50292;BME280;36190;54.980;73.388;2023-08-07T02:10:15;99544.66;;;19.71;59.35
50292;BME280;36190;54.980;73.388;2023-08-07T02:12:44;99548.88;;;19.84;58.91
50292;BME280;36190;54.980;73.388;2023-08-07T02:15:11;99554.47;;;19.94;58.75
50292;BME280;36190;54.980;73.388;2023-08-07T02:17:38;99548.03;;;20.00;58.41
50292;BME280;36190;54.980;73.388;2023-08-07T02:20:08;99552.44;;;20.06;57.94
50292;BME280;36190;54.980;73.388;2023-08-07T02:22:35;99549.25;;;20.10;57.65
50292;BME280;36190;54.980;73.388;2023-08-07T02:25:03;99553.56;;;20.11;57.45
50292;BME280;36190;54.980;73.388;2023-08-07T02:27:31;99559.63;;;20.18;57.52
50292;BME280;36190;54.980;73.388;2023-08-07T02:30:00;99555.91;;;20.24;57.30
50292;BME280;36190;54.980;73.388;2023-08-07T02:32:29;99545.69;;;20.31;57.13
50292;BME280;36190;54.980;73.388;2023-08-07T02:34:56;99550.91;;;20.38;57.04
50292;BME280;36190;54.980;73.388;2023-08-07T02:37:24;99549.31;;;20.42;56.82
50292;BME280;36190;54.980;73.388;2023-08-07T02:39:51;99545.84;;;20.47;56.75
50292;BME280;36190;54.980;73.388;2023-08-07T02:42:19;99556.50;;;20.54;56.85
50292;BME280;36190;54.980;73.388;2023-08-07T02:44:47;99543.81;;;20.59;56.70
50292;BME280;36190;54.980;73.388;2023-08-07T02:47:16;99543.59;;;20.66;56.42
50292;BME280;36190;54.980;73.388;2023-08-07T02:49:43;99546.13;;;20.73;55.91
50292;BME280;36190;54.980;73.388;2023-08-07T02:52:11;99537.78;;;20.80;55.55
50292;BME280;36190;54.980;73.388;2023-08-07T02:54:38;99542.19;;;20.86;55.53
50292;BME280;36190;54.980;73.388;2023-08-07T02:57:06;99542.28;;;20.96;55.41
50292;BME280;36190;54.980;73.388;2023-08-07T02:59:33;99536.13;;;21.06;55.30
50292;BME280;36190;54.980;73.388;2023-08-07T03:02:01;99537.00;;;21.17;55.25
50292;BME280;36190;54.980;73.388;2023-08-07T03:04:30;99530.88;;;21.32;54.97
50292;BME280;36190;54.980;73.388;2023-08-07T03:06:57;99534.78;;;21.47;54.61
50292;BME280;36190;54.980;73.388;2023-08-07T03:09:25;99534.28;;;21.60;54.25
50292;BME280;36190;54.980;73.388;2023-08-07T03:11:52;99532.75;;;21.69;54.13
50292;BME280;36190;54.980;73.388;2023-08-07T03:14:20;99522.75;;;21.80;53.66
50292;BME280;36190;54.980;73.388;2023-08-07T03:16:47;99523.06;;;21.89;53.09
50292;BME280;36190;54.980;73.388;2023-08-07T03:19:14;99525.78;;;21.94;52.75
50292;BME280;36190;54.980;73.388;2023-08-07T03:21:43;99522.81;;;21.96;52.54
50292;BME280;36190;54.980;73.388;2023-08-07T03:24:11;99526.38;;;22.02;52.50
50292;BME280;36190;54.980;73.388;2023-08-07T03:26:38;99524.22;;;22.09;52.37
50292;BME280;36190;54.980;73.388;2023-08-07T03:29:06;99525.34;;;22.13;52.24
50292;BME280;36190;54.980;73.388;2023-08-07T03:31:34;99528.59;;;22.15;51.92
50292;BME280;36190;54.980;73.388;2023-08-07T03:34:02;99528.88;;;22.19;51.97
50292;BME280;36190;54.980;73.388;2023-08-07T03:36:29;99530.25;;;22.21;52.16
50292;BME280;36190;54.980;73.388;2023-08-07T03:38:58;99518.59;;;22.26;51.87
50292;BME280;36190;54.980;73.388;2023-08-07T03:41:26;99522.13;;;22.32;51.87
50292;BME280;36190;54.980;73.388;2023-08-07T03:43:53;99521.34;;;22.42;51.31
50292;BME280;36190;54.980;73.388;2023-08-07T03:46:21;99526.84;;;22.57;51.22
50292;BME280;36190;54.980;73.388;2023-08-07T03:48:48;99525.75;;;22.69;50.63
50292;BME280;36190;54.980;73.388;2023-08-07T03:51:16;99523.31;;;22.77;50.46
50292;BME280;36190;54.980;73.388;2023-08-07T03:53:44;99536.38;;;22.80;49.85
50292;BME280;36190;54.980;73.388;2023-08-07T03:56:13;99530.38;;;22.78;49.75
50292;BME280;36190;54.980;73.388;2023-08-07T03:58:41;99529.28;;;22.79;49.75
50292;BME280;36190;54.980;73.388;2023-08-07T04:01:08;99532.56;;;22.87;49.56
50292;BME280;36190;54.980;73.388;2023-08-07T04:03:36;99528.75;;;22.98;49.33
50292;BME280;36190;54.980;73.388;2023-08-07T04:06:04;99522.75;;;23.12;48.96
50292;BME280;36190;54.980;73.388;2023-08-07T04:08:32;99526.00;;;23.24;48.30
50292;BME280;36190;54.980;73.388;2023-08-07T04:11:00;99523.56;;;23.33;48.01
50292;BME280;36190;54.980;73.388;2023-08-07T04:13:29;99525.47;;;23.38;47.55
50292;BME280;36190;54.980;73.388;2023-08-07T04:15:57;99517.84;;;23.40;47.31
50292;BME280;36190;54.980;73.388;2023-08-07T04:18:26;99517.84;;;23.45;47.07
50292;BME280;36190;54.980;73.388;2023-08-07T04:20:54;99516.19;;;23.49;47.18
50292;BME280;36190;54.980;73.388;2023-08-07T04:23:22;99519.47;;;23.51;46.73
50292;BME280;36190;54.980;73.388;2023-08-07T04:25:50;99515.66;;;23.52;46.64
50292;BME280;36190;54.980;73.388;2023-08-07T04:28:18;99509.63;;;23.55;46.24
50292;BME280;36190;54.980;73.388;2023-08-07T04:30:50;99505.56;;;23.53;46.12
50292;BME280;36190;54.980;73.388;2023-08-07T04:33:18;99514.50;;;23.63;45.97
50292;BME280;36190;54.980;73.388;2023-08-07T04:35:46;99510.94;;;23.73;45.77
50292;BME280;36190;54.980;73.388;2023-08-07T04:38:13;99502.47;;;23.80;45.82
50292;BME280;36190;54.980;73.388;2023-08-07T04:40:45;99509.53;;;23.86;45.09
50292;BME280;36190;54.980;73.388;2023-08-07T04:43:13;99509.78;;;23.90;45.24
50292;BME280;36190;54.980;73.388;2023-08-07T04:45:40;99513.88;;;23.93;45.27
50292;BME280;36190;54.980;73.388;2023-08-07T04:48:10;99512.72;;;23.99;45.04
50292;BME280;36190;54.980;73.388;2023-08-07T04:50:38;99505.91;;;24.01;44.69
50292;BME280;36190;54.980;73.388;2023-08-07T04:53:05;99513.28;;;24.01;44.84
50292;BME280;36190;54.980;73.388;2023-08-07T04:55:33;99508.66;;;24.07;44.54
50292;BME280;36190;54.980;73.388;2023-08-07T04:58:00;99501.25;;;24.12;44.59
50292;BME280;36190;54.980;73.388;2023-08-07T05:00:28;99515.91;;;24.22;43.97
50292;BME280;36190;54.980;73.388;2023-08-07T05:02:56;99513.69;;;24.29;43.85
50292;BME280;36190;54.980;73.388;2023-08-07T05:05:25;99509.84;;;24.35;43.62
50292;BME280;36190;54.980;73.388;2023-08-07T05:07:53;99505.41;;;24.50;43.04
50292;BME280;36190;54.980;73.388;2023-08-07T05:10:21;99508.81;;;24.66;43.06
50292;BME280;36190;54.980;73.388;2023-08-07T05:12:48;99507.38;;;24.79;42.73
50292;BME280;36190;54.980;73.388;2023-08-07T05:15:21;99501.84;;;24.89;42.26
50292;BME280;36190;54.980;73.388;2023-08-07T05:17:49;99513.31;;;24.91;41.93
50292;BME280;36190;54.980;73.388;2023-08-07T05:20:17;99501.25;;;24.97;41.53
50292;BME280;36190;54.980;73.388;2023-08-07T05:22:46;99503.88;;;25.08;41.44
50292;BME280;36190;54.980;73.388;2023-08-07T05:25:14;99499.47;;;25.12;41.61
50292;BME280;36190;54.980;73.388;2023-08-07T05:27:42;99498.66;;;25.11;41.54
50292;BME280;36190;54.980;73.388;2023-08-07T05:30:10;99498.59;;;25.17;41.09
50292;BME280;36190;54.980;73.388;2023-08-07T05:32:38;99482.66;;;25.29;40.77
50292;BME280;36190;54.980;73.388;2023-08-07T05:35:06;99483.50;;;25.54;40.53
50292;BME280;36190;54.980;73.388;2023-08-07T05:37:34;99481.84;;;25.77;40.02
50292;BME280;36190;54.980;73.388;2023-08-07T05:40:04;99467.91;;;25.98;39.47
50292;BME280;36190;54.980;73.388;2023-08-07T05:42:32;99473.75;;;26.11;39.44
50292;BME280;36190;54.980;73.388;2023-08-07T05:45:00;99478.34;;;26.34;39.17
50292;BME280;36190;54.980;73.388;2023-08-07T05:47:28;99483.00;;;26.53;38.59
50292;BME280;36190;54.980;73.388;2023-08-07T05:49:55;99481.81;;;26.59;38.79
50292;BME280;36190;54.980;73.388;2023-08-07T05:52:23;99474.47;;;26.74;38.49
50292;BME280;36190;54.980;73.388;2023-08-07T05:54:50;99482.19;;;26.86;38.25
50292;BME280;36190;54.980;73.388;2023-08-07T05:57:19;99481.75;;;26.78;38.23
50292;BME280;36190;54.980;73.388;2023-08-07T05:59:47;99480.78;;;26.88;37.87
50292;BME280;36190;54.980;73.388;2023-08-07T06:02:14;99482.66;;;27.07;38.19
50292;BME280;36190;54.980;73.388;2023-08-07T06:04:42;99475.50;;;27.11;37.64
50292;BME280;36190;54.980;73.388;2023-08-07T06:07:09;99476.91;;;27.09;37.84
50292;BME280;36190;54.980;73.388;2023-08-07T06:09:37;99475.16;;;26.99;37.83
50292;BME280;36190;54.980;73.388;2023-08-07T06:12:05;99477.56;;;26.86;37.91
50292;BME280;36190;54.980;73.388;2023-08-07T06:14:34;99469.41;;;26.81;38.05
50292;BME280;36190;54.980;73.388;2023-08-07T06:17:01;99463.63;;;27.02;37.88
50292;BME280;36190;54.980;73.388;2023-08-07T06:19:29;99464.63;;;27.34;37.71
50292;BME280;36190;54.980;73.388;2023-08-07T06:21:56;99459.19;;;27.62;37.10
50292;BME280;36190;54.980;73.388;2023-08-07T06:24:24;99462.31;;;27.83;36.60
50292;BME280;36190;54.980;73.388;2023-08-07T06:26:52;99454.06;;;27.97;36.23
50292;BME280;36190;54.980;73.388;2023-08-07T06:29:19;99451.22;;;28.03;36.29
50292;BME280;36190;54.980;73.388;2023-08-07T06:31:48;99460.41;;;27.84;35.97
50292;BME280;36190;54.980;73.388;2023-08-07T06:34:16;99452.91;;;27.62;36.33
50292;BME280;36190;54.980;73.388;2023-08-07T06:36:43;99453.69;;;27.34;36.66
50292;BME280;36190;54.980;73.388;2023-08-07T06:39:11;99449.13;;;27.15;37.02
50292;BME280;36190;54.980;73.388;2023-08-07T06:41:38;99447.00;;;27.12;37.01
50292;BME280;36190;54.980;73.388;2023-08-07T06:44:06;99440.91;;;27.15;36.27
50292;BME280;36190;54.980;73.388;2023-08-07T06:46:33;99441.31;;;27.23;36.13
50292;BME280;36190;54.980;73.388;2023-08-07T06:49:02;99440.41;;;27.41;35.70
50292;BME280;36190;54.980;73.388;2023-08-07T06:51:29;99451.78;;;27.77;35.19
50292;BME280;36190;54.980;73.388;2023-08-07T06:53:57;99447.25;;;28.09;34.91
50292;BME280;36190;54.980;73.388;2023-08-07T06:56:25;99442.84;;;28.22;34.73
50292;BME280;36190;54.980;73.388;2023-08-07T06:58:52;99442.63;;;28.18;34.67
50292;BME280;36190;54.980;73.388;2023-08-07T07:01:19;99438.63;;;28.02;34.89
50292;BME280;36190;54.980;73.388;2023-08-07T07:03:47;99448.13;;;27.81;34.95
50292;BME280;36190;54.980;73.388;2023-08-07T07:06:19;99441.53;;;27.68;35.48
50292;BME280;36190;54.980;73.388;2023-08-07T07:08:49;99444.28;;;27.68;35.35
50292;BME280;36190;54.980;73.388;2023-08-07T07:11:16;99440.59;;;27.87;35.72
50292;BME280;36190;54.980;73.388;2023-08-07T07:13:44;99430.78;;;28.09;35.35
50292;BME280;36190;54.980;73.388;2023-08-07T07:16:11;99433.94;;;28.39;35.02
50292;BME280;36190;54.980;73.388;2023-08-07T07:18:39;99434.28;;;28.69;34.10
50292;BME280;36190;54.980;73.388;2023-08-07T07:21:06;99438.59;;;28.84;33.50
50292;BME280;36190;54.980;73.388;2023-08-07T07:23:35;99444.78;;;28.90;33.52
50292;BME280;36190;54.980;73.388;2023-08-07T07:26:03;99448.03;;;28.92;33.01
50292;BME280;36190;54.980;73.388;2023-08-07T07:28:30;99444.50;;;29.00;33.01
50292;BME280;36190;54.980;73.388;2023-08-07T07:30:57;99437.41;;;29.08;33.06
50292;BME280;36190;54.980;73.388;2023-08-07T07:33:25;99438.41;;;29.12;33.05
50292;BME280;36190;54.980;73.388;2023-08-07T07:35:53;99436.41;;;28.95;33.17
50292;BME280;36190;54.980;73.388;2023-08-07T07:38:21;99447.16;;;28.60;33.63
50292;BME280;36190;54.980;73.388;2023-08-07T07:40:50;99438.78;;;28.19;33.91
50292;BME280;36190;54.980;73.388;2023-08-07T07:43:19;99440.25;;;28.03;34.09
50292;BME280;36190;54.980;73.388;2023-08-07T07:45:46;99441.03;;;28.17;34.27
50292;BME280;36190;54.980;73.388;2023-08-07T07:48:13;99439.94;;;28.41;34.08
50292;BME280;36190;54.980;73.388;2023-08-07T07:50:41;99437.16;;;28.64;33.64
50292;BME280;36190;54.980;73.388;2023-08-07T07:53:08;99439.50;;;28.79;33.30
50292;BME280;36190;54.980;73.388;2023-08-07T07:55:35;99440.44;;;28.98;33.00
50292;BME280;36190;54.980;73.388;2023-08-07T07:58:05;99443.56;;;29.05;32.48
50292;BME280;36190;54.980;73.388;2023-08-07T08:00:32;99428.81;;;29.32;32.52
50292;BME280;36190;54.980;73.388;2023-08-07T08:03:00;99435.06;;;29.64;32.09
50292;BME280;36190;54.980;73.388;2023-08-07T08:05:28;99436.84;;;29.96;31.52
50292;BME280;36190;54.980;73.388;2023-08-07T08:07:55;99431.53;;;30.26;31.17
50292;BME280;36190;54.980;73.388;2023-08-07T08:10:23;99425.53;;;30.50;30.83
50292;BME280;36190;54.980;73.388;2023-08-07T08:12:51;99433.44;;;30.52;30.83
50292;BME280;36190;54.980;73.388;2023-08-07T08:15:20;99429.91;;;30.42;30.62
50292;BME280;36190;54.980;73.388;2023-08-07T08:17:48;99427.81;;;30.30;30.49
50292;BME280;36190;54.980;73.388;2023-08-07T08:20:15;99427.50;;;30.23;30.61
50292;BME280;36190;54.980;73.388;2023-08-07T08:22:43;99425.56;;;30.24;30.08
50292;BME280;36190;54.980;73.388;2023-08-07T08:25:11;99418.41;;;30.49;30.04
50292;BME280;36190;54.980;73.388;2023-08-07T08:27:38;99417.06;;;30.82;29.52
50292;BME280;36190;54.980;73.388;2023-08-07T08:30:07;99422.03;;;30.97;29.29
50292;BME280;36190;54.980;73.388;2023-08-07T08:32:37;99427.84;;;31.05;28.98
50292;BME280;36190;54.980;73.388;2023-08-07T08:35:06;99423.22;;;31.18;28.97
50292;BME280;36190;54.980;73.388;2023-08-07T08:37:33;99409.34;;;31.44;28.92
50292;BME280;36190;54.980;73.388;2023-08-07T08:40:01;99410.13;;;31.75;28.40
50292;BME280;36190;54.980;73.388;2023-08-07T08:42:28;99416.59;;;32.00;28.18
50292;BME280;36190;54.980;73.388;2023-08-07T08:44:56;99407.63;;;32.24;28.05
50292;BME280;36190;54.980;73.388;2023-08-07T08:47:25;99405.34;;;32.60;27.61
50292;BME280;36190;54.980;73.388;2023-08-07T08:50:00;99407.09;;;32.77;26.77
50292;BME280;36190;54.980;73.388;2023-08-07T08:52:29;99411.34;;;32.75;26.88
50292;BME280;36190;54.980;73.388;2023-08-07T08:54:58;99394.44;;;32.76;26.83
50292;BME280;36190;54.980;73.388;2023-08-07T08:57:25;99394.78;;;32.75;26.58
50292;BME280;36190;54.980;73.388;2023-08-07T08:59:53;99391.78;;;32.80;26.60
50292;BME280;36190;54.980;73.388;2023-08-07T09:02:22;99387.41;;;32.79;26.86
50292;BME280;36190;54.980;73.388;2023-08-07T09:04:50;99392.50;;;32.77;26.96
50292;BME280;36190;54.980;73.388;2023-08-07T09:07:20;99390.19;;;32.79;27.04
50292;BME280;36190;54.980;73.388;2023-08-07T09:09:49;99391.44;;;32.35;27.45
50292;BME280;36190;54.980;73.388;2023-08-07T09:12:20;99390.50;;;31.76;28.04
50292;BME280;36190;54.980;73.388;2023-08-07T09:14:50;99394.06;;;31.47;28.51
50292;BME280;36190;54.980;73.388;2023-08-07T09:17:20;99387.44;;;30.61;29.44
50292;BME280;36190;54.980;73.388;2023-08-07T09:19:51;99378.84;;;30.06;29.98
50292;BME280;36190;54.980;73.388;2023-08-07T09:22:20;99382.38;;;30.15;30.20
50292;BME280;36190;54.980;73.388;2023-08-07T09:24:48;99385.22;;;31.02;29.25
50292;BME280;36190;54.980;73.388;2023-08-07T09:27:15;99376.78;;;31.89;28.18
50292;BME280;36190;54.980;73.388;2023-08-07T09:29:43;99376.34;;;32.54;27.30
50292;BME280;36190;54.980;73.388;2023-08-07T09:32:12;99374.28;;;32.51;27.19
50292;BME280;36190;54.980;73.388;2023-08-07T09:34:40;99379.94;;;32.79;26.94
50292;BME280;36190;54.980;73.388;2023-08-07T09:37:08;99380.53;;;33.35;26.35
50292;BME280;36190;54.980;73.388;2023-08-07T09:39:37;99375.91;;;34.05;25.52
50292;BME280;36190;54.980;73.388;2023-08-07T09:42:05;99377.00;;;34.77;24.68
50292;BME280;36190;54.980;73.388;2023-08-07T09:44:40;99385.94;;;35.19;24.38
50292;BME280;36190;54.980;73.388;2023-08-07T09:47:13;99377.09;;;35.49;23.81
50292;BME280;36190;54.980;73.388;2023-08-07T09:49:42;99379.13;;;35.52;23.89
50292;BME280;36190;54.980;73.388;2023-08-07T09:52:10;99371.06;;;35.27;24.04
50292;BME280;36190;54.980;73.388;2023-08-07T09:54:40;99375.47;;;35.28;23.69
50292;BME280;36190;54.980;73.388;2023-08-07T09:57:08;99378.53;;;34.91;23.82
50292;BME280;36190;54.980;73.388;2023-08-07T09:59:35;99379.13;;;34.07;24.22
50292;BME280;36190;54.980;73.388;2023-08-07T10:02:03;99381.00;;;33.25;25.12
50292;BME280;36190;54.980;73.388;2023-08-07T10:04:32;99383.38;;;32.64;25.93
50292;BME280;36190;54.980;73.388;2023-08-07T10:07:01;99377.78;;;32.05;26.38
50292;BME280;36190;54.980;73.388;2023-08-07T10:09:29;99374.88;;;31.59;26.94
50292;BME280;36190;54.980;73.388;2023-08-07T10:12:00;99373.63;;;31.26;27.07
50292;BME280;36190;54.980;73.388;2023-08-07T10:14:29;99367.25;;;31.05;27.18
50292;BME280;36190;54.980;73.388;2023-08-07T10:16:57;99364.31;;;31.40;26.93
50292;BME280;36190;54.980;73.388;2023-08-07T10:19:25;99357.97;;;32.37;26.11
50292;BME280;36190;54.980;73.388;2023-08-07T10:21:53;99354.16;;;33.38;24.81
50292;BME280;36190;54.980;73.388;2023-08-07T10:24:23;99351.75;;;34.18;23.77
50292;BME280;36190;54.980;73.388;2023-08-07T10:26:51;99352.69;;;35.03;23.18
50292;BME280;36190;54.980;73.388;2023-08-07T10:29:22;99362.78;;;35.83;22.51
50292;BME280;36190;54.980;73.388;2023-08-07T10:31:55;99366.34;;;36.23;22.06
50292;BME280;36190;54.980;73.388;2023-08-07T10:34:24;99362.09;;;36.29;22.23
50292;BME280;36190;54.980;73.388;2023-08-07T10:36:51;99357.97;;;35.44;22.47
50292;BME280;36190;54.980;73.388;2023-08-07T10:39:18;99355.41;;;34.22;23.40
50292;BME280;36190;54.980;73.388;2023-08-07T10:41:52;99354.09;;;33.09;24.16
50292;BME280;36190;54.980;73.388;2023-08-07T10:44:23;99353.38;;;33.25;24.79
50292;BME280;36190;54.980;73.388;2023-08-07T10:46:52;99339.13;;;34.05;24.00
50292;BME280;36190;54.980;73.388;2023-08-07T10:49:34;99355.72;;;35.14;23.32
50292;BME280;36190;54.980;73.388;2023-08-07T10:52:04;99355.97;;;36.00;22.23
50292;BME280;36190;54.980;73.388;2023-08-07T10:54:37;99355.56;;;36.64;21.14
50292;BME280;36190;54.980;73.388;2023-08-07T10:57:10;99359.66;;;36.97;20.58
50292;BME280;36190;54.980;73.388;2023-08-07T10:59:49;99355.06;;;37.63;20.19
50292;BME280;36190;54.980;73.388;2023-08-07T11:02:23;99358.28;;;38.37;19.81
50292;BME280;36190;54.980;73.388;2023-08-07T11:04:52;99360.41;;;39.00;19.18
50292;BME280;36190;54.980;73.388;2023-08-07T11:07:24;99356.22;;;39.31;18.75
50292;BME280;36190;54.980;73.388;2023-08-07T11:09:52;99361.94;;;39.53;18.92
50292;BME280;36190;54.980;73.388;2023-08-07T11:12:20;99360.38;;;39.59;18.96
50292;BME280;36190;54.980;73.388;2023-08-07T11:14:49;99362.03;;;39.75;19.06
50292;BME280;36190;54.980;73.388;2023-08-07T11:17:18;99355.63;;;39.74;18.50
50292;BME280;36190;54.980;73.388;2023-08-07T11:19:47;99351.56;;;39.46;18.71
50292;BME280;36190;54.980;73.388;2023-08-07T11:22:15;99355.19;;;39.58;18.14
50292;BME280;36190;54.980;73.388;2023-08-07T11:24:43;99351.06;;;38.74;18.90
50292;BME280;36190;54.980;73.388;2023-08-07T11:27:10;99341.50;;;37.04;19.60
50292;BME280;36190;54.980;73.388;2023-08-07T11:29:38;99347.53;;;35.37;21.25
50292;BME280;36190;54.980;73.388;2023-08-07T11:32:08;99344.69;;;34.21;22.60
50292;BME280;36190;54.980;73.388;2023-08-07T11:34:35;99340.72;;;34.50;22.84
50292;BME280;36190;54.980;73.388;2023-08-07T11:37:04;99336.28;;;35.85;22.00
50292;BME280;36190;54.980;73.388;2023-08-07T11:39:31;99344.28;;;37.31;20.65
50292;BME280;36190;54.980;73.388;2023-08-07T11:42:00;99349.19;;;38.44;20.26
50292;BME280;36190;54.980;73.388;2023-08-07T11:44:27;99346.53;;;39.07;19.84
50292;BME280;36190;54.980;73.388;2023-08-07T11:46:55;99339.94;;;39.41;19.25
50292;BME280;36190;54.980;73.388;2023-08-07T11:49:24;99348.13;;;39.86;19.02
50292;BME280;36190;54.980;73.388;2023-08-07T11:51:52;99342.97;;;40.10;18.71
50292;BME280;36190;54.980;73.388;2023-08-07T11:54:19;99340.63;;;40.19;18.14
50292;BME280;36190;54.980;73.388;2023-08-07T11:56:46;99341.47;;;40.56;17.75
50292;BME280;36190;54.980;73.388;2023-08-07T11:59:16;99345.84;;;40.82;17.47
50292;BME280;36190;54.980;73.388;2023-08-07T12:01:46;99337.06;;;40.99;16.87
50292;BME280;36190;54.980;73.388;2023-08-07T12:04:13;99331.88;;;40.93;17.38
50292;BME280;36190;54.980;73.388;2023-08-07T12:06:52;99339.78;;;41.24;17.00
50292;BME280;36190;54.980;73.388;2023-08-07T12:09:20;99327.56;;;41.85;16.68
50292;BME280;36190;54.980;73.388;2023-08-07T12:11:48;99325.03;;;42.62;16.19
50292;BME280;36190;54.980;73.388;2023-08-07T12:14:16;99334.06;;;42.84;16.26
50292;BME280;36190;54.980;73.388;2023-08-07T12:16:44;99336.72;;;42.99;16.45
50292;BME280;36190;54.980;73.388;2023-08-07T12:19:12;99336.50;;;42.79;16.36
50292;BME280;36190;54.980;73.388;2023-08-07T12:21:40;99338.69;;;42.60;16.27
50292;BME280;36190;54.980;73.388;2023-08-07T12:24:10;99334.34;;;42.52;16.47
50292;BME280;36190;54.980;73.388;2023-08-07T12:26:40;99334.00;;;42.42;16.41
50292;BME280;36190;54.980;73.388;2023-08-07T12:29:07;99322.41;;;42.40;16.38
50292;BME280;36190;54.980;73.388;2023-08-07T12:31:35;99333.25;;;42.34;16.53
50292;BME280;36190;54.980;73.388;2023-08-07T12:34:02;99334.03;;;42.39;16.36
50292;BME280;36190;54.980;73.388;2023-08-07T12:36:30;99336.03;;;42.38;16.59
50292;BME280;36190;54.980;73.388;2023-08-07T12:38:57;99324.13;;;42.27;16.65
50292;BME280;36190;54.980;73.388;2023-08-07T12:41:26;99328.66;;;40.95;17.39
50292;BME280;36190;54.980;73.388;2023-08-07T12:43:54;99323.47;;;40.28;17.79
50292;BME280;36190;54.980;73.388;2023-08-07T12:46:21;99332.28;;;40.70;17.45
50292;BME280;36190;54.980;73.388;2023-08-07T12:48:49;99320.22;;;41.20;17.15
50292;BME280;36190;54.980;73.388;2023-08-07T12:51:17;99322.50;;;41.55;16.92
50292;BME280;36190;54.980;73.388;2023-08-07T12:53:44;99327.19;;;41.83;17.06
50292;BME280;36190;54.980;73.388;2023-08-07T12:56:13;99325.44;;;42.04;16.73